createdAt,value
2018-05-18T00:01:13.444Z,13.40
2018-05-18T00:03:41.722Z,13.40
2018-05-18T00:06:09.273Z,13.30
2018-05-18T00:08:36.841Z,13.30
2018-05-18T00:11:05.120Z,13.20
2018-05-18T00:13:32.604Z,13.10
2018-05-18T00:16:00.058Z,13.10
2018-05-18T00:18:27.543Z,13.10
2018-05-18T00:20:55.022Z,13.10
2018-05-18T00:23:22.584Z,13.20
2018-05-18T00:25:51.555Z,13.20
2018-05-18T00:28:19.057Z,13.20
2018-05-18T00:30:46.518Z,13.20
2018-05-18T00:33:14.008Z,13.30
2018-05-18T00:35:41.482Z,13.30
2018-05-18T00:38:08.970Z,13.20
2018-05-18T00:40:37.224Z,13.00
2018-05-18T00:43:04.698Z,13.00
2018-05-18T00:45:32.176Z,13.00
2018-05-18T00:47:59.668Z,13.00
2018-05-18T00:50:27.140Z,13.00
2018-05-18T00:52:54.728Z,12.90
2018-05-18T00:55:34.159Z,12.80
2018-05-18T00:58:01.709Z,12.80
2018-05-18T01:00:29.141Z,12.70
2018-05-18T01:02:56.609Z,12.70
2018-05-18T01:05:24.089Z,12.70
2018-05-18T01:07:51.572Z,12.80
2018-05-18T01:10:19.104Z,12.80
2018-05-18T01:12:46.594Z,12.90
2018-05-18T01:15:14.175Z,12.90
2018-05-18T01:17:41.651Z,12.90
2018-05-18T01:20:09.130Z,12.90
2018-05-18T01:22:36.627Z,12.80
2018-05-18T01:25:04.123Z,12.70
2018-05-18T01:27:31.662Z,12.60
2018-05-18T01:29:59.134Z,12.60
2018-05-18T01:32:26.621Z,12.50
2018-05-18T01:34:54.868Z,12.50
2018-05-18T01:37:22.379Z,12.40
2018-05-18T01:39:50.628Z,12.40
2018-05-18T01:42:18.121Z,12.40
2018-05-18T01:44:45.649Z,12.40
2018-05-18T01:47:13.213Z,12.40
2018-05-18T01:49:41.537Z,12.40
2018-05-18T01:52:09.011Z,12.30
2018-05-18T01:54:36.496Z,12.50
2018-05-18T01:57:04.775Z,12.40
2018-05-18T01:59:32.246Z,12.40
2018-05-18T02:02:00.503Z,12.40
2018-05-18T02:04:29.487Z,12.30
2018-05-18T02:06:56.952Z,12.30
2018-05-18T02:09:24.464Z,12.30
2018-05-18T02:11:52.011Z,12.30
2018-05-18T02:14:19.504Z,12.20
2018-05-18T02:16:46.961Z,12.20
2018-05-18T02:19:14.534Z,12.10
2018-05-18T02:21:41.998Z,12.10
2018-05-18T02:24:09.470Z,12.10
2018-05-18T02:26:37.731Z,12.00
2018-05-18T02:29:05.290Z,12.00
2018-05-18T02:31:32.821Z,12.00
2018-05-18T02:34:00.282Z,12.00
2018-05-18T02:36:27.769Z,12.10
2018-05-18T02:38:55.243Z,12.10
2018-05-18T02:41:23.514Z,12.10
2018-05-18T02:43:51.758Z,12.10
2018-05-18T02:46:19.229Z,12.10
2018-05-18T02:48:46.698Z,12.10
2018-05-18T02:51:14.939Z,12.10
2018-05-18T02:53:42.418Z,12.00
2018-05-18T02:56:09.890Z,12.00
2018-05-18T02:58:38.124Z,11.90
2018-05-18T03:01:05.606Z,11.90
2018-05-18T03:03:33.860Z,11.90
2018-05-18T03:06:01.463Z,11.80
2018-05-18T03:08:29.692Z,11.80
2018-05-18T03:10:57.169Z,11.70
2018-05-18T03:13:24.642Z,11.80
2018-05-18T03:15:52.895Z,12.00
2018-05-18T03:18:21.139Z,11.90
2018-05-18T03:20:48.614Z,11.80
2018-05-18T03:23:16.074Z,11.80
2018-05-18T03:25:43.554Z,11.90
2018-05-18T03:28:11.806Z,11.90
2018-05-18T03:30:39.276Z,11.90
2018-05-18T03:33:06.873Z,11.90
2018-05-18T03:35:34.376Z,11.90
2018-05-18T03:38:01.850Z,11.90
2018-05-18T03:40:29.345Z,11.90
2018-05-18T03:42:56.820Z,11.90
2018-05-18T03:45:24.281Z,11.90
2018-05-18T03:47:51.787Z,12.00
2018-05-18T03:50:20.069Z,11.80
2018-05-18T03:52:48.338Z,11.80
2018-05-18T03:55:16.573Z,11.80
2018-05-18T03:57:44.058Z,11.70
2018-05-18T04:00:11.531Z,11.80
2018-05-18T04:02:51.922Z,11.80
2018-05-18T04:05:31.193Z,11.70
2018-05-18T04:08:07.701Z,11.80
2018-05-18T04:10:35.972Z,11.70
2018-05-18T04:13:04.217Z,11.70
2018-05-18T04:15:31.723Z,11.70
2018-05-18T04:17:59.159Z,11.80
2018-05-18T04:20:27.466Z,11.80
2018-05-18T04:22:54.938Z,11.70
2018-05-18T04:25:22.399Z,11.90
2018-05-18T04:27:49.878Z,11.90
2018-05-18T04:30:17.490Z,11.90
2018-05-18T04:32:45.734Z,11.90
2018-05-18T04:35:13.958Z,12.00
2018-05-18T04:37:41.474Z,12.00
2018-05-18T04:40:09.704Z,12.10
2018-05-18T04:42:37.178Z,12.00
2018-05-18T04:45:04.704Z,12.10
2018-05-18T04:47:32.171Z,12.10
2018-05-18T04:49:59.666Z,12.20
2018-05-18T04:52:27.262Z,12.30
2018-05-18T04:54:54.720Z,12.30
2018-05-18T04:57:22.249Z,12.40
2018-05-18T04:59:50.495Z,12.50
2018-05-18T05:02:17.975Z,12.40
2018-05-18T05:04:46.239Z,12.50
2018-05-18T05:07:13.817Z,12.50
2018-05-18T05:09:42.075Z,12.60
2018-05-18T05:12:09.535Z,12.50
2018-05-18T05:14:37.121Z,12.50
2018-05-18T05:17:05.367Z,12.60
2018-05-18T05:19:32.930Z,12.50
2018-05-18T05:22:00.395Z,12.50
2018-05-18T05:24:28.654Z,12.80
2018-05-18T05:26:56.114Z,12.70
2018-05-18T05:29:23.670Z,12.90
2018-05-18T05:31:51.148Z,12.80
2018-05-18T05:34:19.411Z,12.80
2018-05-18T05:36:46.938Z,12.70
2018-05-18T05:39:15.126Z,12.80
2018-05-18T05:41:42.702Z,12.80
2018-05-18T05:44:10.258Z,12.90
2018-05-18T05:46:37.737Z,12.90
2018-05-18T05:49:05.982Z,12.90
2018-05-18T05:51:33.467Z,12.80
2018-05-18T05:54:01.714Z,13.00
2018-05-18T05:56:29.182Z,13.00
2018-05-18T05:58:57.462Z,13.00
2018-05-18T06:01:25.728Z,13.00
2018-05-18T06:03:53.202Z,13.00
2018-05-18T06:06:21.445Z,13.20
2018-05-18T06:08:49.036Z,13.20
2018-05-18T06:11:17.310Z,13.20
2018-05-18T06:13:45.580Z,13.10
2018-05-18T06:16:13.046Z,13.00
2018-05-18T06:18:41.308Z,13.10
2018-05-18T06:21:08.863Z,13.00
2018-05-18T06:23:36.330Z,13.10
2018-05-18T06:26:04.559Z,13.20
2018-05-18T06:28:32.037Z,13.20
2018-05-18T06:30:59.570Z,13.10
2018-05-18T06:33:27.035Z,13.20
2018-05-18T06:35:54.506Z,13.20
2018-05-18T06:38:21.975Z,13.30
2018-05-18T06:40:49.458Z,13.20
2018-05-18T06:43:17.710Z,13.20
2018-05-18T06:45:45.280Z,13.10
2018-05-18T06:48:13.544Z,13.30
2018-05-18T06:50:41.119Z,13.20
2018-05-18T06:53:09.355Z,13.30
2018-05-18T06:55:36.834Z,13.20
2018-05-18T06:58:04.312Z,13.20
2018-05-18T07:00:32.566Z,13.20
2018-05-18T07:03:00.123Z,13.20
2018-05-18T07:05:27.606Z,13.30
2018-05-18T07:07:55.841Z,13.30
2018-05-18T07:10:23.520Z,13.20
2018-05-18T07:12:51.008Z,13.40
2018-05-18T07:15:18.488Z,13.50
2018-05-18T07:17:45.999Z,13.60
2018-05-18T07:20:13.476Z,13.70
2018-05-18T07:22:41.719Z,13.70
2018-05-18T07:25:09.282Z,13.70
2018-05-18T07:27:36.765Z,13.90
2018-05-18T07:30:05.112Z,13.60
2018-05-18T07:32:32.590Z,13.50
2018-05-18T07:35:00.826Z,13.70
2018-05-18T07:37:28.300Z,13.70
2018-05-18T07:39:56.528Z,13.80
2018-05-18T07:42:24.003Z,13.80
2018-05-18T07:44:51.470Z,14.00
2018-05-18T07:47:18.944Z,14.10
2018-05-18T07:49:46.510Z,14.10
2018-05-18T07:52:14.763Z,14.10
2018-05-18T07:54:42.211Z,14.10
2018-05-18T07:57:09.692Z,14.20
2018-05-18T07:59:37.217Z,14.30
2018-05-18T08:02:05.416Z,14.30
2018-05-18T08:04:32.886Z,14.20
2018-05-18T08:07:00.461Z,14.50
2018-05-18T08:09:28.704Z,14.70
2018-05-18T08:11:56.184Z,14.60
2018-05-18T08:14:23.656Z,14.60
2018-05-18T08:16:51.889Z,14.70
2018-05-18T08:19:19.372Z,14.60
2018-05-18T08:21:46.932Z,14.70
2018-05-18T08:24:14.452Z,14.60
2018-05-18T08:26:41.999Z,14.60
2018-05-18T08:29:21.268Z,14.60
2018-05-18T08:31:48.842Z,14.60
2018-05-18T08:34:16.306Z,14.80
2018-05-18T08:36:43.766Z,14.70
2018-05-18T08:39:12.034Z,14.80
2018-05-18T08:41:39.519Z,14.80
2018-05-18T08:44:06.973Z,14.80
2018-05-18T08:46:34.508Z,14.90
2018-05-18T08:49:01.979Z,15.00
2018-05-18T08:51:30.227Z,14.90
2018-05-18T08:53:57.686Z,14.80
2018-05-18T08:56:25.168Z,14.80
2018-05-18T08:58:53.429Z,14.50
2018-05-18T09:01:21.695Z,14.50
2018-05-18T09:03:49.256Z,14.40
2018-05-18T09:06:16.846Z,14.40
2018-05-18T09:08:44.271Z,14.50
2018-05-18T09:11:11.737Z,14.60
2018-05-18T09:13:39.204Z,14.60
2018-05-18T09:16:07.426Z,14.40
2018-05-18T09:18:34.927Z,14.30
2018-05-18T09:21:03.168Z,14.50
2018-05-18T09:23:30.643Z,14.40
2018-05-18T09:25:58.120Z,14.60
2018-05-18T09:28:26.403Z,14.70
2018-05-18T09:30:54.624Z,14.70
2018-05-18T09:33:22.128Z,14.60
2018-05-18T09:35:50.387Z,14.80
2018-05-18T09:38:17.862Z,14.70
2018-05-18T09:40:46.116Z,14.90
2018-05-18T09:43:13.607Z,14.80
2018-05-18T09:45:41.853Z,14.80
2018-05-18T09:48:09.407Z,14.70
2018-05-18T09:50:36.884Z,14.70
2018-05-18T09:53:05.134Z,14.70
2018-05-18T09:55:32.958Z,14.60
2018-05-18T09:58:00.177Z,14.50
2018-05-18T10:00:28.779Z,14.70
2018-05-18T10:02:56.245Z,14.70
2018-05-18T10:05:23.769Z,14.90
2018-05-18T10:07:52.037Z,14.80
2018-05-18T10:10:19.529Z,14.80
2018-05-18T10:12:47.102Z,14.80
2018-05-18T10:15:14.572Z,14.80
2018-05-18T10:17:42.054Z,15.00
2018-05-18T10:20:09.542Z,15.10
2018-05-18T10:22:37.783Z,15.10
2018-05-18T10:25:05.348Z,15.10
2018-05-18T10:27:32.914Z,15.20
2018-05-18T10:30:00.393Z,15.20
2018-05-18T10:32:28.615Z,15.40
2018-05-18T10:34:56.081Z,15.40
2018-05-18T10:37:23.538Z,15.50
2018-05-18T10:39:50.997Z,15.60
2018-05-18T10:42:18.454Z,15.70
2018-05-18T10:44:46.033Z,15.90
2018-05-18T10:47:13.509Z,15.90
2018-05-18T10:49:41.741Z,15.90
2018-05-18T10:52:09.199Z,15.90
2018-05-18T10:54:36.694Z,16.00
2018-05-18T10:57:04.922Z,15.90
2018-05-18T10:59:32.566Z,15.90
2018-05-18T11:02:00.108Z,15.80
2018-05-18T11:04:27.580Z,15.70
2018-05-18T11:06:55.120Z,15.60
2018-05-18T11:09:22.522Z,15.80
2018-05-18T11:11:49.994Z,15.90
2018-05-18T11:14:17.571Z,15.80
2018-05-18T11:16:44.935Z,15.80
2018-05-18T11:19:13.194Z,15.70
2018-05-18T11:21:40.694Z,15.60
2018-05-18T11:24:08.191Z,15.70
2018-05-18T11:26:35.665Z,15.50
2018-05-18T11:29:03.899Z,15.30
2018-05-18T11:31:31.396Z,15.30
2018-05-18T11:33:58.871Z,15.40
2018-05-18T11:36:27.110Z,15.50
2018-05-18T11:38:54.588Z,15.50
2018-05-18T11:41:22.092Z,15.70
2018-05-18T11:43:49.605Z,15.80
2018-05-18T11:46:17.858Z,15.60
2018-05-18T11:48:45.430Z,15.60
2018-05-18T11:51:12.900Z,15.60
2018-05-18T11:53:41.149Z,15.50
2018-05-18T11:56:08.614Z,15.40
2018-05-18T11:58:36.074Z,15.40
2018-05-18T12:01:03.543Z,15.40
2018-05-18T12:03:31.766Z,15.70
2018-05-18T12:05:59.244Z,15.60
2018-05-18T12:08:26.758Z,15.50
2018-05-18T12:10:54.992Z,15.50
2018-05-18T12:13:22.451Z,15.50
2018-05-18T12:15:49.918Z,15.60
2018-05-18T12:18:18.166Z,15.80
2018-05-18T12:20:45.730Z,15.70
2018-05-18T12:23:13.207Z,15.80
2018-05-18T12:25:41.511Z,15.60
2018-05-18T12:28:09.282Z,15.60
2018-05-18T12:30:36.760Z,15.70
2018-05-18T12:33:04.316Z,15.70
2018-05-18T12:35:31.785Z,15.50
2018-05-18T12:37:59.265Z,15.40
2018-05-18T12:40:26.739Z,15.40
2018-05-18T12:42:55.100Z,15.70
2018-05-18T12:45:22.565Z,15.60
2018-05-18T12:47:50.069Z,15.80
2018-05-18T12:50:17.532Z,15.80
2018-05-18T12:52:45.014Z,15.90
2018-05-18T12:55:12.471Z,16.00
2018-05-18T12:57:39.958Z,16.10
2018-05-18T13:00:08.194Z,16.20
2018-05-18T13:02:35.681Z,16.20
2018-05-18T13:05:03.158Z,16.30
2018-05-18T13:07:31.395Z,16.30
2018-05-18T13:09:58.858Z,16.30
2018-05-18T13:12:27.839Z,15.80
2018-05-18T13:14:55.318Z,15.80
2018-05-18T13:17:22.786Z,15.70
2018-05-18T13:19:51.026Z,15.70
2018-05-18T13:22:18.604Z,15.60
2018-05-18T13:24:46.844Z,15.60
2018-05-18T13:27:14.335Z,15.60
2018-05-18T13:29:41.881Z,15.70
2018-05-18T13:32:09.462Z,15.60
2018-05-18T13:34:36.930Z,15.60
2018-05-18T13:37:05.202Z,15.60
2018-05-18T13:39:33.452Z,15.70
2018-05-18T13:42:00.928Z,15.70
2018-05-18T13:44:28.470Z,15.70
2018-05-18T13:46:56.046Z,15.80
2018-05-18T13:49:24.308Z,16.00
2018-05-18T13:51:52.620Z,16.00
2018-05-18T13:54:20.038Z,15.90
2018-05-18T13:56:47.494Z,15.90
2018-05-18T13:59:15.068Z,15.90
2018-05-18T14:01:42.653Z,15.90
2018-05-18T14:04:10.170Z,16.00
2018-05-18T14:06:37.747Z,15.90
2018-05-18T14:09:08.648Z,15.80
2018-05-18T14:11:36.122Z,15.80
2018-05-18T14:14:03.705Z,15.90
2018-05-18T14:16:31.946Z,16.00
2018-05-18T14:18:59.417Z,16.00
2018-05-18T14:21:26.999Z,16.20
2018-05-18T14:23:55.240Z,16.00
2018-05-18T14:26:22.821Z,16.00
2018-05-18T14:28:50.289Z,15.90
2018-05-18T14:31:18.603Z,15.80
2018-05-18T14:33:46.065Z,15.70
2018-05-18T14:36:13.540Z,15.60
2018-05-18T14:38:41.127Z,15.50
2018-05-18T14:41:08.676Z,15.50
2018-05-18T14:43:36.144Z,15.60
2018-05-18T14:46:03.631Z,15.50
2018-05-18T14:48:31.100Z,15.50
2018-05-18T14:50:58.566Z,15.50
2018-05-18T14:53:26.030Z,15.50
2018-05-18T14:55:53.511Z,15.60
2018-05-18T14:58:20.992Z,15.60
2018-05-18T15:00:49.279Z,15.60
2018-05-18T15:03:17.518Z,15.60
2018-05-18T15:05:45.091Z,15.50
2018-05-18T15:08:13.262Z,15.40
2018-05-18T15:10:40.726Z,15.40
2018-05-18T15:13:08.965Z,15.50
2018-05-18T15:15:36.443Z,15.50
2018-05-18T15:18:03.920Z,15.60
2018-05-18T15:20:32.176Z,15.60
2018-05-18T15:22:59.742Z,15.50
2018-05-18T15:25:27.282Z,15.50
2018-05-18T15:27:54.739Z,15.50
2018-05-18T15:30:22.311Z,15.50
2018-05-18T15:32:49.853Z,15.60
2018-05-18T15:35:17.314Z,15.70
2018-05-18T15:37:44.774Z,15.70
2018-05-18T15:40:12.243Z,15.70
2018-05-18T15:42:39.749Z,15.60
2018-05-18T15:45:07.231Z,15.60
2018-05-18T15:47:34.712Z,15.70
2018-05-18T15:50:02.959Z,15.50
2018-05-18T15:52:30.418Z,15.50
2018-05-18T15:54:57.902Z,15.40
2018-05-18T15:57:26.187Z,15.40
2018-05-18T15:59:53.688Z,15.30
2018-05-18T16:02:21.166Z,15.20
2018-05-18T16:04:48.651Z,15.30
2018-05-18T16:07:16.909Z,15.20
2018-05-18T16:09:44.374Z,15.10
2018-05-18T16:12:11.934Z,15.10
2018-05-18T16:14:39.490Z,15.10
2018-05-18T16:17:07.050Z,15.20
2018-05-18T16:19:34.515Z,15.20
2018-05-18T16:22:02.067Z,15.30
2018-05-18T16:24:29.530Z,15.30
2018-05-18T16:26:57.016Z,15.30
2018-05-18T16:29:25.284Z,15.00
2018-05-18T16:31:53.561Z,15.00
2018-05-18T16:34:21.800Z,14.90
2018-05-18T16:36:49.270Z,14.80
2018-05-18T16:39:16.756Z,14.80
2018-05-18T16:41:45.028Z,14.90
2018-05-18T16:44:13.266Z,14.90
2018-05-18T16:46:40.743Z,14.90
2018-05-18T16:49:08.975Z,15.00
2018-05-18T16:51:36.458Z,14.90
2018-05-18T16:54:03.926Z,15.00
2018-05-18T16:56:31.431Z,15.00
2018-05-18T16:58:58.918Z,15.00
2018-05-18T17:01:26.400Z,14.80
2018-05-18T17:03:54.649Z,14.60
2018-05-18T17:06:22.105Z,14.50
2018-05-18T17:08:49.578Z,14.60
2018-05-18T17:11:17.046Z,14.60
2018-05-18T17:13:44.506Z,14.60
2018-05-18T17:16:11.996Z,14.70
2018-05-18T17:18:39.507Z,14.70
2018-05-18T17:21:07.071Z,14.70
2018-05-18T17:23:34.632Z,14.60
2018-05-18T17:26:02.091Z,14.60
2018-05-18T17:28:29.703Z,14.60
2018-05-18T17:30:57.184Z,14.60
2018-05-18T17:33:24.650Z,14.60
2018-05-18T17:35:52.120Z,14.70
2018-05-18T17:38:19.670Z,14.70
2018-05-18T17:40:47.151Z,14.70
2018-05-18T17:43:15.402Z,14.60
2018-05-18T17:45:42.894Z,14.60
2018-05-18T17:48:11.132Z,14.60
2018-05-18T17:50:38.609Z,14.60
2018-05-18T17:53:06.087Z,14.60
2018-05-18T17:55:33.614Z,14.70
2018-05-18T17:58:01.104Z,14.70
2018-05-18T18:00:28.626Z,14.60
2018-05-18T18:02:56.183Z,14.60
2018-05-18T18:05:23.770Z,14.70
2018-05-18T18:07:52.098Z,14.70
2018-05-18T18:10:19.478Z,14.60
2018-05-18T18:12:47.034Z,14.60
2018-05-18T18:15:14.595Z,14.70
2018-05-18T18:17:42.159Z,14.70
2018-05-18T18:20:10.420Z,14.70
2018-05-18T18:22:37.998Z,14.70
2018-05-18T18:25:06.230Z,14.60
2018-05-18T18:27:33.698Z,14.60
2018-05-18T18:30:01.165Z,14.60
2018-05-18T18:32:28.665Z,14.60
2018-05-18T18:34:56.196Z,14.60
2018-05-18T18:37:23.752Z,14.60
2018-05-18T18:39:51.233Z,14.60
2018-05-18T18:42:19.470Z,14.60
2018-05-18T18:44:46.943Z,14.60
2018-05-18T18:47:14.420Z,14.70
2018-05-18T18:49:42.725Z,14.60
2018-05-18T18:52:10.317Z,14.60
2018-05-18T18:54:37.721Z,14.60
2018-05-18T18:57:05.354Z,14.60
2018-05-18T18:59:32.828Z,14.60
2018-05-18T19:02:01.066Z,14.50
2018-05-18T19:04:28.635Z,14.40
2018-05-18T19:06:56.103Z,14.50
2018-05-18T19:09:23.572Z,14.50
2018-05-18T19:11:51.811Z,14.40
2018-05-18T19:14:19.275Z,14.30
2018-05-18T19:16:46.747Z,14.30
2018-05-18T19:19:15.014Z,14.30
2018-05-18T19:21:42.570Z,14.20
2018-05-18T19:24:10.086Z,14.20
2018-05-18T19:26:37.547Z,14.30
2018-05-18T19:29:05.035Z,14.20
2018-05-18T19:31:32.611Z,14.20
2018-05-18T19:34:00.102Z,14.20
2018-05-18T19:36:27.606Z,14.20
2018-05-18T19:38:55.077Z,14.10
2018-05-18T19:41:22.538Z,14.20
2018-05-18T19:43:50.915Z,14.20
2018-05-18T19:46:19.088Z,14.30
2018-05-18T19:48:46.596Z,14.20
2018-05-18T19:51:14.095Z,14.10
2018-05-18T19:53:42.339Z,13.90
2018-05-18T19:56:09.826Z,13.90
2018-05-18T19:58:37.446Z,13.90
2018-05-18T20:01:04.917Z,13.90
2018-05-18T20:03:32.385Z,14.00
2018-05-18T20:05:59.963Z,13.90
2018-05-18T20:08:27.458Z,14.00
2018-05-18T20:10:55.241Z,13.90
2018-05-18T20:13:22.961Z,13.90
2018-05-18T20:15:51.599Z,13.90
2018-05-18T20:18:19.456Z,13.80
2018-05-18T20:20:47.117Z,13.80
2018-05-18T20:23:14.581Z,13.80
2018-05-18T20:25:42.067Z,13.90
2018-05-18T20:28:09.531Z,13.90
2018-05-18T20:30:38.516Z,13.90
2018-05-18T20:33:05.990Z,13.90
2018-05-18T20:35:33.469Z,13.90
2018-05-18T20:38:00.936Z,13.90
2018-05-18T20:40:28.427Z,13.90
2018-05-18T20:42:55.907Z,13.90
2018-05-18T20:45:23.381Z,13.90
2018-05-18T20:47:51.632Z,13.90
2018-05-18T20:50:19.130Z,13.90
2018-05-18T20:52:46.622Z,14.00
2018-05-18T20:55:14.105Z,13.80
2018-05-18T20:57:41.587Z,13.80
2018-05-18T21:00:09.905Z,13.70
2018-05-18T21:02:37.387Z,13.70
2018-05-18T21:05:04.854Z,13.80
2018-05-18T21:07:32.418Z,13.80
2018-05-18T21:09:59.953Z,13.90
2018-05-18T21:12:27.432Z,13.90
2018-05-18T21:14:54.908Z,13.90
2018-05-18T21:17:23.150Z,13.80
2018-05-18T21:19:50.681Z,13.70
2018-05-18T21:22:18.196Z,13.80
2018-05-18T21:24:46.433Z,13.90
2018-05-18T21:27:13.950Z,13.80
2018-05-18T21:29:41.527Z,13.90
2018-05-18T21:32:09.014Z,13.80
2018-05-18T21:34:36.583Z,13.90
2018-05-18T21:37:04.049Z,13.80
2018-05-18T21:39:31.518Z,13.90
2018-05-18T21:41:59.772Z,14.00
2018-05-18T21:44:27.350Z,13.90
2018-05-18T21:46:55.635Z,14.00
2018-05-18T21:49:27.643Z,14.00
2018-05-18T21:51:55.131Z,14.00
2018-05-18T21:54:22.590Z,13.90
2018-05-18T21:56:50.141Z,13.90
2018-05-18T21:59:17.617Z,13.90
2018-05-18T22:01:45.896Z,13.90
2018-05-18T22:04:14.169Z,13.90
2018-05-18T22:06:42.408Z,13.90
2018-05-18T22:09:09.879Z,13.80
2018-05-18T22:11:37.354Z,13.90
2018-05-18T22:14:04.875Z,13.80
2018-05-18T22:16:33.092Z,13.80
2018-05-18T22:19:00.650Z,13.80
2018-05-18T22:21:28.878Z,13.70
2018-05-18T22:23:56.383Z,13.60
2018-05-18T22:26:23.929Z,13.70
2018-05-18T22:28:51.486Z,13.70
2018-05-18T22:31:19.038Z,13.70
2018-05-18T22:33:48.030Z,13.80
2018-05-18T22:36:15.590Z,13.80
2018-05-18T22:38:43.072Z,13.80
2018-05-18T22:41:11.321Z,13.80
2018-05-18T22:43:38.883Z,13.70
2018-05-18T22:46:06.444Z,13.80
2018-05-18T22:48:33.922Z,13.70
2018-05-18T22:51:02.155Z,13.80
2018-05-18T22:53:29.710Z,13.80
2018-05-18T22:55:57.918Z,13.80
2018-05-18T22:58:25.388Z,13.70
2018-05-18T23:00:53.620Z,13.80
2018-05-18T23:03:21.094Z,13.80
2018-05-18T23:05:48.598Z,13.80
2018-05-18T23:08:16.063Z,13.80
2018-05-18T23:10:43.583Z,13.80
2018-05-18T23:13:11.815Z,13.70
2018-05-18T23:15:39.314Z,13.60
2018-05-18T23:18:06.858Z,13.70
2018-05-18T23:20:34.314Z,13.80
2018-05-18T23:23:01.783Z,13.80
2018-05-18T23:25:30.024Z,13.60
2018-05-18T23:27:57.505Z,13.50
2018-05-18T23:30:24.979Z,13.50
2018-05-18T23:32:53.247Z,13.50
2018-05-18T23:35:20.816Z,13.50
2018-05-18T23:37:49.042Z,13.40
2018-05-18T23:40:16.534Z,13.30
2018-05-18T23:42:44.082Z,13.40
2018-05-18T23:45:11.554Z,13.30
2018-05-18T23:47:39.786Z,13.40
2018-05-18T23:50:07.281Z,13.30
2018-05-18T23:52:34.837Z,13.30
2018-05-18T23:55:02.311Z,13.30
2018-05-18T23:57:30.546Z,13.40
2018-05-18T23:59:58.024Z,13.30
